Time;durP1;ratioP1;P1;durP2;ratioP2;P2;SDS_P1;SDS_P2;PMS_P1;PMS_P2;Temp;Humidity;BMP_temperature;BMP_pressure;BME280_temperature;BME280_humidity;BME280_pressure;Samples;Min_cycle;Max_cycle;Signal;HPM_P1;HPM_P2
2022/07/29 21:21:28;;;;;;;;;;;25.70;66.90;25.60;99695.00;;;;334044;28;92672;-83
2022/07/29 21:21:40;;;;;;;;;;;25.70;67.30;25.60;99694.00;;;;337900;28;83442;-82
2022/07/29 21:21:52;;;;;;;;;;;25.70;67.20;25.50;99691.00;;;;334518;29;95597;-84
2022/07/29 21:22:03;;;;;;;;;;;25.70;67.30;25.60;99690.00;;;;335404;29;82529;-83
2022/07/29 21:22:15;;;;;;;;;;;25.70;67.30;25.60;99694.00;;;;333741;29;94319;-82
2022/07/29 21:22:27;;;;;;;;;;;25.70;67.20;25.60;99691.00;;;;334819;29;82573;-83
2022/07/29 21:22:39;;;;;;;;;;;25.70;67.00;25.60;99690.00;;;;334414;29;94642;-83
2022/07/29 21:22:54;;;;;;;;;;;25.70;67.30;25.60;99694.00;;;;334040;29;83517;-83
2022/07/29 21:23:06;;;;;;;;;;;25.70;67.10;25.70;99688.00;;;;334796;29;93370;-83
2022/07/29 21:23:18;;;;;;;;;;;25.70;66.90;25.60;99687.00;;;;336530;28;83449;-83
2022/07/29 21:23:30;;;;;;;;;;;25.70;67.10;25.70;99690.00;;;;334603;29;97525;-83
2022/07/29 21:23:42;;;;;;;;;;;25.70;67.10;25.70;99689.00;;;;335354;29;83177;-83
2022/07/29 21:23:54;;;;;;;;;;;25.70;67.00;25.60;99691.00;;;;333425;29;94707;-83
2022/07/29 21:24:06;;;;;;;;;;;25.70;67.10;25.50;99689.00;;;;334154;29;83387;-83
2022/07/29 21:24:22;;;;;;;;;;;25.70;67.40;25.50;99695.00;;;;334746;29;93889;-83
2022/07/29 21:24:34;;;;;;;;;;;25.60;67.50;25.50;99691.00;;;;336668;28;83399;-83
2022/07/29 21:24:45;;;;;;;;;;;25.60;67.70;25.50;99697.00;;;;332114;29;94322;-83
2022/07/29 21:24:57;;;;;;;;;;;25.60;67.70;25.50;99701.00;;;;335482;29;83512;-83
2022/07/29 21:25:09;;;;;;;;;;;25.60;67.40;25.60;99696.00;;;;334730;29;94192;-83
2022/07/29 21:25:21;;;;;;;;;;;25.60;67.40;25.70;99696.00;;;;336712;28;82436;-83
2022/07/29 21:25:34;;;;;;;;;;;25.60;67.30;25.80;99690.00;;;;337146;28;94525;-84
2022/07/29 21:25:46;;;;;;;;;;;25.60;67.20;25.60;99688.00;;;;338097;28;83388;-83
2022/07/29 21:25:58;;;;;;;;;;;25.60;67.30;25.60;99689.00;;;;333401;29;93994;-83
2022/07/29 21:26:10;;;;;;;;;;;25.60;67.40;25.60;99697.00;;;;336724;28;83423;-83
2022/07/29 21:26:23;;;;;;;;;;;25.60;67.20;25.60;99699.00;;;;336048;28;94913;-83
2022/07/29 21:26:35;;;;;;;;;;;25.60;67.10;25.60;99695.00;;;;336675;28;83117;-83
2022/07/29 21:26:47;;;;;;;;;;;25.60;67.10;25.60;99697.00;;;;335966;28;94711;-83
2022/07/29 21:28:25;;;;;;;;;;;25.60;67.40;25.50;99698.00;;;;338101;28;83368;-83
2022/07/29 21:28:39;;;;;;;;;;;25.60;67.30;25.50;99703.00;;;;335901;28;94522;-83
2022/07/29 21:28:51;;;;;;;;;;;25.60;67.30;25.40;99695.00;;;;335361;29;83444;-83
2022/07/29 21:29:03;;;;;;;;;;;25.60;67.30;25.50;99699.00;;;;333423;29;94675;-83
2022/07/29 21:29:15;;;;;;;;;;;25.60;67.40;25.50;99701.00;;;;335052;29;83524;-83
2022/07/29 21:29:26;;;;;;;;;;;25.60;67.30;25.40;99701.00;;;;335053;28;94576;-83
2022/07/29 21:29:38;;;;;;;;;;;25.60;67.30;25.50;99704.00;;;;336825;28;83349;-83
2022/07/29 21:29:50;;;;;;;;;;;25.60;67.40;25.40;99695.00;;;;334767;29;93899;-83
2022/07/29 21:30:02;;;;;;;;;;;25.60;67.30;25.50;99701.00;;;;334101;29;83398;-83
2022/07/29 21:30:14;;;;;;;;;;;25.60;67.20;25.50;99702.00;;;;334286;29;93628;-83
2022/07/29 21:30:26;;;;;;;;;;;25.60;67.00;25.50;99702.00;;;;335525;29;83361;-83
2022/07/29 21:30:37;;;;;;;;;;;25.60;67.00;25.50;99700.00;;;;333285;29;94548;-83
2022/07/29 21:30:49;;;;;;;;;;;25.60;67.10;25.40;99695.00;;;;335396;29;83529;-83
2022/07/29 21:31:03;;;;;;;;;;;25.60;67.10;25.40;99700.00;;;;334709;29;96049;-83
2022/07/29 21:31:15;;;;;;;;;;;25.50;67.10;25.40;99695.00;;;;334127;29;83358;-83
2022/07/29 21:31:27;;;;;;;;;;;25.50;67.30;25.40;99700.00;;;;333371;29;94745;-83
2022/07/29 21:31:41;;;;;;;;;;;25.50;67.40;25.40;99693.00;;;;336797;28;82471;-83
2022/07/29 21:31:53;;;;;;;;;;;25.50;67.30;25.30;99702.00;;;;335962;28;94582;-83
2022/07/29 21:32:04;;;;;;;;;;;25.50;67.40;25.30;99698.00;;;;334141;29;83450;-83
2022/07/29 21:32:16;;;;;;;;;;;25.50;67.50;25.30;99693.00;;;;334745;29;93635;-84
2022/07/29 21:32:40;;;;;;;;;;;25.50;67.60;25.30;99704.00;;;;336688;28;83217;-83
2022/07/29 21:32:52;;;;;;;;;;;25.50;67.80;25.30;99697.00;;;;335995;28;93652;-83
2022/07/29 21:33:04;;;;;;;;;;;25.50;67.90;25.30;99693.00;;;;336819;28;82361;-83
2022/07/29 21:33:16;;;;;;;;;;;25.50;67.80;25.30;99696.00;;;;334638;29;94535;-83
2022/07/29 21:33:28;;;;;;;;;;;25.50;67.80;25.30;99697.00;;;;335457;29;83413;-83
2022/07/29 21:33:41;;;;;;;;;;;25.50;67.80;25.30;99697.00;;;;334483;29;94610;-83
2022/07/29 21:33:53;;;;;;;;;;;25.50;67.80;25.40;99697.00;;;;334152;29;83177;-83
2022/07/29 21:34:05;;;;;;;;;;;25.40;67.50;25.40;99697.00;;;;333396;29;94777;-83
2022/07/29 21:34:17;;;;;;;;;;;25.40;67.40;25.40;99699.00;;;;334147;29;82440;-83
2022/07/29 21:34:28;;;;;;;;;;;25.40;67.40;25.40;99699.00;;;;332216;29;93438;-83
2022/07/29 21:34:40;;;;;;;;;;;25.40;67.20;25.40;99695.00;;;;332727;29;83489;-83
2022/07/29 21:34:52;;;;;;;;;;;25.40;67.30;25.40;99698.00;;;;332111;29;94118;-83
2022/07/29 21:35:04;;;;;;;;;;;25.50;67.30;25.40;99703.00;;;;332933;29;83344;-83
2022/07/29 21:35:36;;;;;;;;;;;25.40;67.20;25.40;99699.00;;;;332269;29;97013;-83
2022/07/29 21:36:08;;;;;;;;;;;25.40;67.30;25.40;99702.00;;;;334119;29;83361;-83
2022/07/29 21:36:40;;;;;;;;;;;25.40;67.40;25.30;99711.00;;;;335456;28;96893;-85
2022/07/29 21:36:59;;;;;;;;;;;25.40;67.50;25.30;99701.00;;;;336772;28;83410;-85
2022/07/29 21:37:11;;;;;;;;;;;25.40;67.60;25.30;99701.00;;;;336006;28;94591;-85
2022/07/29 21:37:23;;;;;;;;;;;25.40;67.60;25.40;99700.00;;;;336741;28;83357;-85
2022/07/29 21:37:35;;;;;;;;;;;25.40;67.50;25.40;99707.00;;;;336036;28;93669;-85
2022/07/29 21:37:47;;;;;;;;;;;25.40;67.40;25.40;99705.00;;;;336654;28;82499;-86
2022/07/29 21:37:58;;;;;;;;;;;25.40;67.40;25.30;99703.00;;;;335978;28;94287;-85
2022/07/29 21:38:10;;;;;;;;;;;25.40;67.60;25.40;99703.00;;;;334144;29;82431;-85
2022/07/29 21:38:22;;;;;;;;;;;25.40;67.50;25.30;99705.00;;;;332200;29;93410;-85
2022/07/29 21:38:34;;;;;;;;;;;25.40;67.50;25.30;99704.00;;;;334003;29;83461;-84
2022/07/29 21:38:46;;;;;;;;;;;25.40;67.80;25.30;99701.00;;;;333343;29;94297;-84
2022/07/29 21:38:58;;;;;;;;;;;25.40;67.80;25.30;99696.00;;;;334212;29;83274;-83
2022/07/29 21:39:10;;;;;;;;;;;25.40;67.80;25.30;99701.00;;;;333406;29;94397;-84
2022/07/29 21:39:22;;;;;;;;;;;25.40;67.70;25.30;99703.00;;;;335430;29;82437;-84
2022/07/29 21:39:33;;;;;;;;;;;25.40;68.40;25.30;99716.00;;;;336046;28;93505;-84
2022/07/29 21:39:45;;;;;;;;;;;25.40;67.90;25.30;99707.00;;;;334187;29;82429;-84
2022/07/29 21:39:57;;;;;;;;;;;25.40;68.00;25.20;99704.00;;;;334621;29;94199;-84
2022/07/29 21:40:09;;;;;;;;;;;25.40;68.20;25.30;99703.00;;;;336290;28;83056;-83
2022/07/29 21:40:21;;;;;;;;;;;25.40;68.10;25.30;99704.00;;;;334751;29;94330;-84
2022/07/29 21:40:33;;;;;;;;;;;25.40;68.00;25.40;99703.00;;;;334046;29;83378;-84
2022/07/29 21:40:45;;;;;;;;;;;25.40;67.90;25.30;99700.00;;;;333293;29;94640;-83
2022/07/29 21:40:57;;;;;;;;;;;25.40;67.90;25.30;99704.00;;;;334232;29;82425;-83
2022/07/29 21:41:11;;;;;;;;;;;25.40;68.10;25.20;99703.00;;;;333363;29;94166;-84
2022/07/29 21:41:23;;;;;;;;;;;25.40;68.20;25.30;99708.00;;;;334183;29;82404;-84
2022/07/29 21:41:34;;;;;;;;;;;25.40;68.00;25.20;99707.00;;;;332164;29;93929;-84
2022/07/29 21:41:46;;;;;;;;;;;25.40;68.20;25.20;99707.00;;;;335468;29;83337;-84
2022/07/29 21:41:58;;;;;;;;;;;25.40;68.20;25.20;99712.00;;;;334609;29;94641;-83
2022/07/29 21:42:10;;;;;;;;;;;25.40;68.20;25.30;99710.00;;;;335413;29;83388;-83
2022/07/29 21:42:21;;;;;;;;;;;25.40;68.00;25.40;99706.00;;;;333488;29;94346;-83
2022/07/29 21:42:35;;;;;;;;;;;25.40;67.80;25.40;99709.00;;;;334062;29;83391;-83
2022/07/29 21:42:46;;;;;;;;;;;25.40;67.80;25.30;99706.00;;;;333315;29;94581;-83
2022/07/29 21:43:00;;;;;;;;;;;25.40;68.30;25.30;99708.00;;;;335482;29;83446;-84
2022/07/29 21:43:12;;;;;;;;;;;25.40;68.20;25.30;99709.00;;;;334594;29;94527;-83
2022/07/29 21:43:25;;;;;;;;;;;25.30;68.00;25.30;99703.00;;;;334187;29;83234;-83
2022/07/29 21:43:37;;;;;;;;;;;25.40;68.10;25.30;99708.00;;;;332235;29;93800;-83
2022/07/29 21:43:53;;;;;;;;;;;25.40;67.90;25.30;99706.00;;;;335446;29;83410;-84
2022/07/29 21:44:09;;;;;;;;;;;25.30;68.00;25.30;99707.00;;;;334694;29;94663;-83
2022/07/29 21:44:21;;;;;;;;;;;25.30;68.10;25.30;99709.00;;;;335477;29;83369;-83
2022/07/29 21:44:36;;;;;;;;;;;25.40;68.10;25.30;99704.00;;;;333305;29;94220;-84
2022/07/29 21:44:48;;;;;;;;;;;25.30;67.90;25.30;99708.00;;;;334165;29;83336;-84
2022/07/29 21:45:00;;;;;;;;;;;25.40;67.80;25.40;99708.00;;;;336021;28;93172;-84
2022/07/29 21:45:12;;;;;;;;;;;25.40;67.90;25.30;99711.00;;;;336763;28;83338;-84
2022/07/29 21:45:24;;;;;;;;;;;25.30;67.90;25.20;99709.00;;;;334647;29;94389;-84
2022/07/29 21:45:36;;;;;;;;;;;25.30;68.20;25.20;99710.00;;;;336745;28;83357;-83
2022/07/29 21:45:50;;;;;;;;;;;25.30;68.20;25.30;99712.00;;;;335987;28;93408;-84
2022/07/29 21:46:02;;;;;;;;;;;25.30;68.10;25.30;99711.00;;;;335369;29;82529;-84
2022/07/29 21:46:15;;;;;;;;;;;25.30;67.90;25.30;99716.00;;;;334682;29;94494;-84
2022/07/29 21:46:27;;;;;;;;;;;25.30;68.00;25.30;99712.00;;;;335469;29;83402;-84
2022/07/29 21:46:39;;;;;;;;;;;25.30;68.00;25.40;99711.00;;;;335857;28;94429;-84
2022/07/29 21:46:51;;;;;;;;;;;25.30;67.90;25.30;99704.00;;;;336731;28;83305;-84
2022/07/29 21:47:04;;;;;;;;;;;25.30;68.10;25.30;99710.00;;;;336061;28;94058;-84
2022/07/29 21:47:16;;;;;;;;;;;25.30;68.00;25.40;99715.00;;;;332804;29;83455;-84
2022/07/29 21:47:28;;;;;;;;;;;25.40;68.10;25.40;99711.00;;;;333254;29;94238;-84
2022/07/29 21:47:40;;;;;;;;;;;25.30;68.10;25.40;99715.00;;;;335434;29;83252;-84
2022/07/29 21:47:51;;;;;;;;;;;25.30;68.30;25.40;99709.00;;;;333428;29;93849;-84
2022/07/29 21:48:04;;;;;;;;;;;25.30;68.20;25.40;99708.00;;;;334086;29;83458;-84
2022/07/29 21:48:16;;;;;;;;;;;25.30;68.10;25.40;99711.00;;;;333445;29;93412;-84
2022/07/29 21:48:28;;;;;;;;;;;25.30;68.10;25.40;99710.00;;;;334155;29;83359;-84
2022/07/29 21:48:40;;;;;;;;;;;25.40;68.70;25.40;99718.00;;;;333309;29;94240;-84
2022/07/29 21:48:55;;;;;;;;;;;25.40;68.00;25.30;99716.00;;;;334172;29;82545;-83
2022/07/29 21:49:07;;;;;;;;;;;25.40;68.00;25.40;99714.00;;;;332137;29;94230;-84
2022/07/29 21:49:19;;;;;;;;;;;25.40;68.00;25.40;99710.00;;;;333916;29;83500;-84
2022/07/29 21:49:30;;;;;;;;;;;25.30;67.90;25.30;99719.00;;;;333356;29;93142;-83
2022/07/29 21:49:43;;;;;;;;;;;25.30;68.20;25.40;99714.00;;;;334159;29;82437;-84
2022/07/29 21:49:55;;;;;;;;;;;25.40;68.10;25.40;99718.00;;;;334434;29;93518;-84
2022/07/29 21:50:07;;;;;;;;;;;25.40;68.10;25.40;99709.00;;;;334783;29;84029;-84
2022/07/29 21:50:19;;;;;;;;;;;25.40;68.10;25.50;99717.00;;;;334621;29;94208;-84
2022/07/29 21:50:31;;;;;;;;;;;25.40;68.10;25.50;99724.00;;;;336343;28;83512;-84
2022/07/29 21:50:43;;;;;;;;;;;25.40;68.00;25.40;99724.00;;;;335891;28;94521;-84
2022/07/29 21:50:55;;;;;;;;;;;25.40;67.90;25.40;99718.00;;;;336680;28;83442;-83
2022/07/29 21:51:07;;;;;;;;;;;25.30;67.90;25.40;99714.00;;;;335277;28;94290;-83
2022/07/29 21:51:18;;;;;;;;;;;25.40;68.00;25.40;99710.00;;;;336621;28;83504;-84
2022/07/29 21:51:30;;;;;;;;;;;25.30;67.90;25.40;99722.00;;;;336016;28;94611;-84
2022/07/29 21:51:42;;;;;;;;;;;25.40;67.90;25.40;99713.00;;;;338105;28;83335;-83
2022/07/29 21:51:53;;;;;;;;;;;25.40;67.80;25.50;99723.00;;;;336002;28;93394;-83
2022/07/29 21:52:05;;;;;;;;;;;25.40;67.80;25.60;99719.00;;;;336695;28;83379;-83
2022/07/29 21:52:18;;;;;;;;;;;25.40;67.80;25.60;99718.00;;;;335996;28;94308;-83
2022/07/29 21:52:31;;;;;;;;;;;25.40;68.00;25.50;99714.00;;;;336660;28;83190;-83
2022/07/29 21:52:43;;;;;;;;;;;25.40;68.10;25.40;99716.00;;;;334668;29;94572;-84
2022/07/29 21:52:55;;;;;;;;;;;25.40;68.10;25.40;99715.00;;;;335423;29;83300;-84
2022/07/29 21:53:07;;;;;;;;;;;25.40;68.00;25.30;99722.00;;;;335413;28;94478;-83
2022/07/29 21:53:23;;;;;;;;;;;25.40;68.00;25.30;99720.00;;;;334095;29;83475;-83
2022/07/29 21:53:37;;;;;;;;;;;25.40;68.00;25.20;99721.00;;;;333410;29;94286;-83
2022/07/29 21:53:50;;;;;;;;;;;25.40;68.00;25.20;99727.00;;;;336665;28;83518;-84
2022/07/29 21:54:03;;;;;;;;;;;25.40;68.00;25.30;99728.00;;;;333368;29;93544;-83
2022/07/29 21:54:17;;;;;;;;;;;25.30;67.90;25.30;99726.00;;;;334127;29;83277;-83
2022/07/29 21:54:30;;;;;;;;;;;25.30;67.90;25.30;99733.00;;;;333372;29;94212;-84
2022/07/29 21:54:42;;;;;;;;;;;25.30;67.80;25.40;99724.00;;;;336636;28;83579;-83
2022/07/29 21:54:54;;;;;;;;;;;25.30;67.70;25.50;99722.00;;;;335921;28;94263;-83
2022/07/29 21:55:06;;;;;;;;;;;25.30;67.90;25.50;99723.00;;;;336830;28;82441;-83
2022/07/29 21:55:21;;;;;;;;;;;25.30;67.90;25.60;99734.00;;;;335750;28;93624;-84
2022/07/29 21:55:36;;;;;;;;;;;25.40;67.80;25.50;99726.00;;;;335485;29;82541;-84
2022/07/29 21:55:49;;;;;;;;;;;25.40;67.90;25.40;99728.00;;;;335203;28;93430;-84
2022/07/29 21:56:01;;;;;;;;;;;25.40;68.00;25.40;99721.00;;;;337283;28;83528;-84
2022/07/29 21:56:16;;;;;;;;;;;25.40;68.10;25.40;99723.00;;;;336040;28;93418;-84
2022/07/29 21:56:28;;;;;;;;;;;25.40;67.90;25.30;99725.00;;;;336758;28;82435;-84
2022/07/29 21:56:42;;;;;;;;;;;25.30;67.80;25.30;99725.00;;;;334639;29;94548;-84
2022/07/29 21:57:01;;;;;;;;;;;25.30;68.10;25.30;99725.00;;;;335486;29;83222;-84
2022/07/29 21:57:14;;;;;;;;;;;25.30;67.90;25.20;99731.00;;;;334676;29;94312;-83
2022/07/29 21:57:26;;;;;;;;;;;25.30;68.30;25.30;99718.00;;;;336738;28;82502;-84
2022/07/29 21:57:38;;;;;;;;;;;25.30;68.30;25.30;99724.00;;;;336031;28;94131;-84
2022/07/29 21:57:49;;;;;;;;;;;25.30;68.20;25.20;99726.00;;;;335738;28;83332;-84
2022/07/29 21:58:02;;;;;;;;;;;25.30;68.30;25.20;99725.00;;;;334595;29;94432;-84
2022/07/29 21:58:14;;;;;;;;;;;25.30;68.20;25.30;99726.00;;;;336296;28;83363;-84
2022/07/29 21:58:26;;;;;;;;;;;25.30;68.10;25.30;99725.00;;;;336069;28;93448;-84
2022/07/29 21:58:37;;;;;;;;;;;25.30;68.20;25.30;99718.00;;;;337045;28;84064;-83
2022/07/29 21:58:49;;;;;;;;;;;25.30;67.90;25.20;99725.00;;;;337417;28;94255;-84
2022/07/29 21:59:01;;;;;;;;;;;25.30;68.10;25.20;99727.00;;;;338053;28;83416;-84
2022/07/29 21:59:13;;;;;;;;;;;25.30;68.20;25.30;99733.00;;;;337254;28;94099;-84
2022/07/29 21:59:24;;;;;;;;;;;25.30;68.10;25.30;99726.00;;;;336734;28;82436;-84
2022/07/29 21:59:36;;;;;;;;;;;25.30;68.10;25.30;99726.00;;;;335451;28;91937;-84
2022/07/29 21:59:48;;;;;;;;;;;25.30;68.00;25.30;99728.00;;;;335368;29;83410;-84
2022/07/29 22:00:00;;;;;;;;;;;25.30;68.00;25.20;99726.00;;;;334601;29;94412;-84
2022/07/29 22:00:17;;;;;;;;;;;25.30;68.20;25.30;99732.00;;;;333589;29;83432;-83
2022/07/29 22:00:30;;;;;;;;;;;25.30;68.10;25.30;99721.00;;;;333411;29;93373;-84
2022/07/29 22:00:42;;;;;;;;;;;25.30;67.90;25.20;99726.00;;;;335353;29;83504;-83
2022/07/29 22:00:54;;;;;;;;;;;25.30;67.90;25.20;99728.00;;;;335985;28;94222;-84
2022/07/29 22:01:06;;;;;;;;;;;25.30;68.20;25.20;99731.00;;;;336663;28;83621;-84
2022/07/29 22:01:18;;;;;;;;;;;25.30;68.30;25.10;99729.00;;;;335846;28;94555;-84
2022/07/29 22:01:29;;;;;;;;;;;25.30;68.30;25.20;99723.00;;;;336738;28;83457;-84
2022/07/29 22:01:50;;;;;;;;;;;25.20;68.10;25.20;99728.00;;;;334579;29;94461;-84
2022/07/29 22:02:02;;;;;;;;;;;25.20;68.00;25.20;99726.00;;;;335352;29;83390;-84
2022/07/29 22:02:14;;;;;;;;;;;25.20;68.30;25.10;99730.00;;;;334660;29;94294;-84
2022/07/29 22:02:25;;;;;;;;;;;25.20;68.50;25.10;99726.00;;;;335480;29;82395;-84
2022/07/29 22:02:37;;;;;;;;;;;25.20;68.50;25.10;99729.00;;;;334513;29;94304;-84
2022/07/29 22:02:49;;;;;;;;;;;25.20;68.50;25.10;99727.00;;;;334223;29;82904;-84
2022/07/29 22:03:01;;;;;;;;;;;25.20;68.60;25.10;99726.00;;;;333445;29;94116;-84
2022/07/29 22:03:13;;;;;;;;;;;25.20;68.60;25.10;99729.00;;;;335426;29;82419;-84
2022/07/29 22:03:25;;;;;;;;;;;25.20;68.60;25.10;99726.00;;;;334682;29;94318;-84
2022/07/29 22:03:36;;;;;;;;;;;25.20;68.70;25.10;99723.00;;;;334193;29;83315;-84
2022/07/29 22:03:48;;;;;;;;;;;25.20;68.70;25.00;99726.00;;;;333193;29;93053;-84
2022/07/29 22:04:00;;;;;;;;;;;25.20;68.70;25.00;99722.00;;;;334064;29;83474;-84
2022/07/29 22:04:12;;;;;;;;;;;25.20;68.60;25.00;99735.00;;;;333266;29;94520;-84
2022/07/29 22:04:23;;;;;;;;;;;25.20;68.70;25.00;99732.00;;;;334161;29;83304;-84
2022/07/29 22:04:35;;;;;;;;;;;25.20;68.60;25.00;99727.00;;;;333303;29;93479;-84
2022/07/29 22:04:47;;;;;;;;;;;25.20;68.70;25.10;99730.00;;;;332903;29;83269;-84
2022/07/29 22:04:59;;;;;;;;;;;25.20;68.60;25.00;99730.00;;;;330927;29;92983;-84
2022/07/29 22:05:11;;;;;;;;;;;25.20;68.60;25.00;99723.00;;;;335391;29;83454;-84
2022/07/29 22:05:23;;;;;;;;;;;25.20;68.80;24.90;99722.00;;;;334620;29;94299;-84
2022/07/29 22:05:34;;;;;;;;;;;25.20;68.90;24.90;99728.00;;;;334179;29;83301;-84
2022/07/29 22:05:46;;;;;;;;;;;25.20;68.90;24.90;99728.00;;;;333374;29;94288;-84
2022/07/29 22:05:58;;;;;;;;;;;25.20;69.10;25.10;99723.00;;;;331451;29;83496;-84
2022/07/29 22:06:10;;;;;;;;;;;25.20;68.90;25.00;99728.00;;;;330827;29;94109;-84
2022/07/29 22:06:31;;;;;;;;;;;25.10;69.10;25.00;99733.00;;;;332830;29;83361;-83
2022/07/29 22:06:43;;;;;;;;;;;25.10;69.00;25.10;99725.00;;;;334663;29;93904;-84
2022/07/29 22:06:55;;;;;;;;;;;25.10;68.90;25.10;99729.00;;;;335433;29;82476;-84
2022/07/29 22:07:06;;;;;;;;;;;25.10;68.80;25.00;99725.00;;;;334660;29;94148;-84
2022/07/29 22:07:18;;;;;;;;;;;25.10;69.40;25.00;99725.00;;;;335373;29;82558;-83
2022/07/29 22:07:30;;;;;;;;;;;25.10;69.20;25.00;99732.00;;;;334657;29;94204;-83
2022/07/29 22:08:02;;;;;;;;;;;25.10;69.00;25.00;99725.00;;;;335277;29;82476;-84
2022/07/29 22:08:14;;;;;;;;;;;25.10;69.00;25.20;99729.00;;;;333380;29;94186;-84
2022/07/29 22:08:26;;;;;;;;;;;25.10;68.90;25.20;99717.00;;;;334152;29;83340;-84
2022/07/29 22:08:39;;;;;;;;;;;25.10;68.80;25.20;99733.00;;;;332860;29;94293;-83
2022/07/29 22:08:51;;;;;;;;;;;25.10;68.80;25.10;99724.00;;;;332830;29;83426;-83
2022/07/29 22:09:02;;;;;;;;;;;25.10;68.80;25.10;99733.00;;;;333677;29;93535;-83
2022/07/29 22:09:14;;;;;;;;;;;25.10;68.80;25.00;99728.00;;;;334004;29;83513;-84
2022/07/29 22:09:26;;;;;;;;;;;25.10;68.80;25.00;99723.00;;;;334633;29;92982;-84
2022/07/29 22:09:38;;;;;;;;;;;25.10;68.90;25.00;99725.00;;;;335462;29;83401;-83
2022/07/29 22:09:49;;;;;;;;;;;25.10;68.70;25.10;99728.00;;;;334627;29;94236;-84
2022/07/29 22:10:01;;;;;;;;;;;25.10;68.50;25.10;99721.00;;;;332757;29;82529;-84
2022/07/29 22:10:13;;;;;;;;;;;25.10;68.60;25.20;99725.00;;;;332738;29;95373;-84
2022/07/29 22:10:26;;;;;;;;;;;25.10;68.50;25.20;99727.00;;;;332923;29;83438;-83
2022/07/29 22:10:38;;;;;;;;;;;25.10;68.80;25.20;99728.00;;;;331919;29;94610;-84
2022/07/29 22:10:49;;;;;;;;;;;25.10;69.00;25.20;99726.00;;;;332852;29;83444;-84
2022/07/29 22:11:01;;;;;;;;;;;25.10;68.80;25.20;99728.00;;;;332103;29;92473;-83
2022/07/29 22:11:13;;;;;;;;;;;25.10;68.70;25.20;99724.00;;;;331500;29;83431;-84
2022/07/29 22:11:25;;;;;;;;;;;25.10;68.70;25.20;99726.00;;;;330788;29;94207;-84
2022/07/29 22:11:37;;;;;;;;;;;25.10;68.90;25.20;99724.00;;;;331618;29;82398;-83
2022/07/29 22:11:49;;;;;;;;;;;25.10;68.80;25.30;99726.00;;;;333330;29;94408;-84
2022/07/29 22:12:01;;;;;;;;;;;25.10;68.90;25.30;99728.00;;;;335323;29;83422;-84
2022/07/29 22:12:13;;;;;;;;;;;25.10;69.00;25.30;99723.00;;;;334589;29;93417;-84
2022/07/29 22:12:24;;;;;;;;;;;25.10;68.70;25.20;99727.00;;;;335436;29;83340;-84
2022/07/29 22:12:36;;;;;;;;;;;25.10;68.60;25.20;99730.00;;;;334595;29;94142;-84
2022/07/29 22:12:52;;;;;;;;;;;25.10;68.50;25.20;99731.00;;;;334100;29;83398;-83
2022/07/29 22:13:04;;;;;;;;;;;25.10;68.60;25.10;99724.00;;;;334718;29;93491;-83
2022/07/29 22:13:15;;;;;;;;;;;25.10;68.60;25.00;99726.00;;;;335329;29;83415;-84
2022/07/29 22:13:27;;;;;;;;;;;25.10;68.50;25.10;99727.00;;;;335919;28;94182;-84
2022/07/29 22:13:39;;;;;;;;;;;25.10;69.20;25.10;99724.00;;;;336746;28;83452;-83
2022/07/29 22:13:51;;;;;;;;;;;25.10;68.70;25.20;99727.00;;;;335418;28;94457;-83
2022/07/29 22:14:04;;;;;;;;;;;25.10;68.60;25.20;99724.00;;;;336462;28;83620;-83
2022/07/29 22:14:17;;;;;;;;;;;25.10;68.50;25.20;99726.00;;;;337182;28;93438;-83
2022/07/29 22:14:28;;;;;;;;;;;25.10;68.50;25.10;99722.00;;;;335364;29;83364;-83
2022/07/29 22:14:40;;;;;;;;;;;25.10;68.50;25.10;99727.00;;;;333339;29;93063;-84
2022/07/29 22:14:52;;;;;;;;;;;25.10;68.50;25.10;99724.00;;;;332830;29;83357;-83
2022/07/29 22:15:05;;;;;;;;;;;25.10;68.50;25.00;99725.00;;;;330848;29;93423;-84
2022/07/29 22:15:16;;;;;;;;;;;25.10;68.70;25.10;99725.00;;;;331460;29;83466;-83
2022/07/29 22:15:28;;;;;;;;;;;25.10;68.60;25.20;99719.00;;;;330790;29;94328;-84
2022/07/29 22:15:40;;;;;;;;;;;25.10;68.50;25.10;99730.00;;;;331592;29;83311;-84
2022/07/29 22:15:57;;;;;;;;;;;25.10;68.70;25.00;99725.00;;;;331949;29;94472;-84
2022/07/29 22:16:13;;;;;;;;;;;25.10;68.80;25.10;99726.00;;;;331541;29;83413;-83
2022/07/29 22:16:25;;;;;;;;;;;25.10;68.70;25.10;99728.00;;;;332092;29;94688;-84
2022/07/29 22:16:37;;;;;;;;;;;25.10;68.70;25.00;99723.00;;;;332840;29;82203;-83
2022/07/29 22:16:48;;;;;;;;;;;25.10;68.60;25.10;99719.00;;;;332043;29;94320;-84
2022/07/29 22:17:00;;;;;;;;;;;25.10;68.50;25.10;99732.00;;;;333110;29;83338;-84
2022/07/29 22:17:13;;;;;;;;;;;25.10;68.40;25.20;99731.00;;;;333336;29;93894;-84
2022/07/29 22:17:24;;;;;;;;;;;25.10;68.40;25.20;99729.00;;;;334064;29;83461;-84
2022/07/29 22:17:36;;;;;;;;;;;25.10;68.50;25.20;99723.00;;;;333693;29;94164;-84
2022/07/29 22:17:48;;;;;;;;;;;25.00;69.10;25.20;99729.00;;;;335389;29;83363;-84
2022/07/29 22:18:00;;;;;;;;;;;25.10;68.70;25.10;99732.00;;;;334519;29;94155;-84
2022/07/29 22:18:12;;;;;;;;;;;25.10;68.60;25.00;99729.00;;;;336327;28;83327;-84
2022/07/29 22:18:31;;;;;;;;;;;25.10;68.60;25.10;99731.00;;;;335971;28;94222;-83
2022/07/29 22:18:45;;;;;;;;;;;25.10;68.40;25.00;99724.00;;;;336630;28;83497;-84
2022/07/29 22:18:57;;;;;;;;;;;25.10;68.50;25.00;99726.00;;;;334675;29;94410;-84
2022/07/29 22:19:09;;;;;;;;;;;25.10;68.70;25.00;99729.00;;;;335383;29;83496;-83
2022/07/29 22:19:20;;;;;;;;;;;25.10;68.60;25.10;99728.00;;;;333331;29;93859;-84
2022/07/29 22:19:39;;;;;;;;;;;25.10;68.50;25.00;99732.00;;;;334130;29;82523;-84
2022/07/29 22:19:51;;;;;;;;;;;25.10;68.80;25.00;99716.00;;;;333326;29;94149;-83
2022/07/29 22:20:05;;;;;;;;;;;25.00;68.70;24.90;99720.00;;;;334062;29;83432;-83
2022/07/29 22:20:17;;;;;;;;;;;25.00;68.70;25.00;99723.00;;;;334317;29;94561;-84
2022/07/29 22:20:28;;;;;;;;;;;25.00;68.90;25.00;99734.00;;;;335398;29;83388;-83
2022/07/29 22:20:40;;;;;;;;;;;25.00;68.80;25.00;99723.00;;;;334570;29;94448;-84
2022/07/29 22:20:52;;;;;;;;;;;25.00;68.80;25.10;99723.00;;;;335413;29;83518;-83
2022/07/29 22:21:04;;;;;;;;;;;25.00;68.70;25.00;99732.00;;;;334360;29;94648;-84
2022/07/29 22:21:15;;;;;;;;;;;25.00;68.70;25.00;99718.00;;;;336624;28;83385;-83
2022/07/29 22:21:27;;;;;;;;;;;25.00;68.50;25.00;99727.00;;;;334669;29;93460;-84
2022/07/29 22:21:39;;;;;;;;;;;25.00;69.20;25.00;99728.00;;;;335322;29;83511;-84
2022/07/29 22:21:51;;;;;;;;;;;25.00;68.50;24.90;99723.00;;;;333298;29;93506;-83
2022/07/29 22:22:03;;;;;;;;;;;25.00;68.60;24.90;99724.00;;;;335198;28;83335;-83
2022/07/29 22:22:14;;;;;;;;;;;25.00;68.70;25.00;99725.00;;;;334546;29;96926;-84
2022/07/29 22:22:26;;;;;;;;;;;25.00;68.80;25.10;99724.00;;;;336812;28;83246;-84
2022/07/29 22:22:38;;;;;;;;;;;25.00;68.70;25.20;99726.00;;;;333283;29;94428;-84
2022/07/29 22:22:50;;;;;;;;;;;25.00;68.60;25.20;99723.00;;;;334122;29;82458;-83
2022/07/29 22:23:02;;;;;;;;;;;25.00;68.60;25.20;99731.00;;;;332128;29;94622;-83
2022/07/29 22:23:13;;;;;;;;;;;25.00;68.70;25.10;99722.00;;;;332776;29;83408;-84
2022/07/29 22:23:25;;;;;;;;;;;25.00;68.50;25.10;99724.00;;;;334614;29;96641;-83
2022/07/29 22:23:37;;;;;;;;;;;25.00;68.60;25.20;99730.00;;;;332800;29;83414;-84
2022/07/29 22:23:49;;;;;;;;;;;25.00;68.50;25.10;99720.00;;;;333922;29;94613;-83
2022/07/29 22:24:01;;;;;;;;;;;25.00;68.50;25.10;99727.00;;;;335323;29;83447;-84
2022/07/29 22:24:13;;;;;;;;;;;25.00;68.60;25.00;99727.00;;;;334510;29;95538;-84
2022/07/29 22:24:24;;;;;;;;;;;25.00;68.50;25.00;99724.00;;;;332855;29;83382;-84
2022/07/29 22:24:36;;;;;;;;;;;25.00;68.50;25.10;99721.00;;;;334656;29;94201;-83
2022/07/29 22:24:48;;;;;;;;;;;25.00;68.60;25.10;99729.00;;;;335399;29;83386;-84
2022/07/29 22:25:00;;;;;;;;;;;25.00;68.50;25.10;99725.00;;;;334696;29;94515;-83
2022/07/29 22:25:11;;;;;;;;;;;25.00;68.50;25.10;99725.00;;;;335290;29;83491;-83
2022/07/29 22:25:23;;;;;;;;;;;25.00;68.30;25.10;99727.00;;;;334612;29;93834;-83